sensor_id;sensor_type;location;lat;lon;timestamp;pressure;altitude;pressure_sealevel;temperature;humidity
28008;BME280;15333;50.010;20.020;2023-04-08T00:01:39;99003.22;;;1.39;100.00
28008;BME280;15333;50.010;20.020;2023-04-08T00:04:40;98999.00;;;1.35;100.00
28008;BME280;15333;50.010;20.020;2023-04-08T00:07:41;98999.91;;;1.34;100.00
28008;BME280;15333;50.010;20.020;2023-04-08T00:10:42;98999.13;;;1.30;100.00
28008;BME280;15333;50.010;20.020;2023-04-08T00:13:43;99000.91;;;1.30;100.00
28008;BME280;15333;50.010;20.020;2023-04-08T00:16:44;99013.34;;;1.26;100.00
28008;BME280;15333;50.010;20.020;2023-04-08T00:19:45;99002.03;;;1.23;100.00
28008;BME280;15333;50.010;20.020;2023-04-08T00:22:46;99000.63;;;1.12;100.00
28008;BME280;15333;50.010;20.020;2023-04-08T00:25:47;99003.38;;;1.09;100.00
28008;BME280;15333;50.010;20.020;2023-04-08T00:28:48;99007.94;;;1.04;100.00
28008;BME280;15333;50.010;20.020;2023-04-08T00:31:49;99009.66;;;1.05;100.00
28008;BME280;15333;50.010;20.020;2023-04-08T00:34:51;99008.25;;;0.95;100.00
28008;BME280;15333;50.010;20.020;2023-04-08T00:37:52;99019.00;;;0.89;100.00
28008;BME280;15333;50.010;20.020;2023-04-08T00:40:53;99007.97;;;0.78;100.00
28008;BME280;15333;50.010;20.020;2023-04-08T00:43:53;99017.88;;;0.70;100.00
28008;BME280;15333;50.010;20.020;2023-04-08T00:46:55;99019.59;;;0.71;100.00
28008;BME280;15333;50.010;20.020;2023-04-08T00:49:56;99011.63;;;0.72;100.00
28008;BME280;15333;50.010;20.020;2023-04-08T00:52:57;99021.63;;;0.63;100.00
28008;BME280;15333;50.010;20.020;2023-04-08T00:55:58;99020.09;;;0.56;100.00
28008;BME280;15333;50.010;20.020;2023-04-08T00:59:01;99029.09;;;0.49;100.00
28008;BME280;15333;50.010;20.020;2023-04-08T01:02:32;99027.38;;;0.48;100.00
28008;BME280;15333;50.010;20.020;2023-04-08T01:05:52;99025.63;;;0.47;100.00
28008;BME280;15333;50.010;20.020;2023-04-08T01:08:59;99031.09;;;0.41;100.00
28008;BME280;15333;50.010;20.020;2023-04-08T01:12:03;99038.94;;;0.42;100.00
28008;BME280;15333;50.010;20.020;2023-04-08T01:15:06;99034.63;;;0.39;100.00
28008;BME280;15333;50.010;20.020;2023-04-08T01:18:11;99032.81;;;0.42;100.00
28008;BME280;15333;50.010;20.020;2023-04-08T01:21:15;99036.38;;;0.41;100.00
28008;BME280;15333;50.010;20.020;2023-04-08T01:24:24;99036.38;;;0.41;100.00
28008;BME280;15333;50.010;20.020;2023-04-08T01:27:29;99039.03;;;0.39;100.00
28008;BME280;15333;50.010;20.020;2023-04-08T01:30:33;99041.50;;;0.44;100.00
28008;BME280;15333;50.010;20.020;2023-04-08T01:33:35;99035.31;;;0.46;100.00
28008;BME280;15333;50.010;20.020;2023-04-08T01:36:37;99038.66;;;0.51;100.00
28008;BME280;15333;50.010;20.020;2023-04-08T01:39:40;99035.22;;;0.49;100.00
28008;BME280;15333;50.010;20.020;2023-04-08T01:42:42;99039.81;;;0.43;100.00
28008;BME280;15333;50.010;20.020;2023-04-08T01:45:47;99042.44;;;0.43;100.00
28008;BME280;15333;50.010;20.020;2023-04-08T01:48:49;99040.66;;;0.43;100.00
28008;BME280;15333;50.010;20.020;2023-04-08T01:51:51;99046.66;;;0.48;100.00
28008;BME280;15333;50.010;20.020;2023-04-08T01:54:53;99048.31;;;0.51;100.00
28008;BME280;15333;50.010;20.020;2023-04-08T01:57:55;99046.63;;;0.50;100.00
28008;BME280;15333;50.010;20.020;2023-04-08T02:00:58;99047.38;;;0.53;100.00
28008;BME280;15333;50.010;20.020;2023-04-08T02:04:00;99050.94;;;0.51;100.00
28008;BME280;15333;50.010;20.020;2023-04-08T02:07:03;99050.34;;;0.43;100.00
28008;BME280;15333;50.010;20.020;2023-04-08T02:10:05;99044.38;;;0.36;100.00
28008;BME280;15333;50.010;20.020;2023-04-08T02:13:06;99048.44;;;0.48;100.00
28008;BME280;15333;50.010;20.020;2023-04-08T02:16:18;99049.84;;;0.58;100.00
28008;BME280;15333;50.010;20.020;2023-04-08T02:19:26;99056.88;;;0.57;100.00
28008;BME280;15333;50.010;20.020;2023-04-08T02:25:37;99060.88;;;0.43;100.00
28008;BME280;15333;50.010;20.020;2023-04-08T02:28:38;99065.31;;;0.41;100.00
28008;BME280;15333;50.010;20.020;2023-04-08T02:31:41;99069.69;;;0.42;100.00
28008;BME280;15333;50.010;20.020;2023-04-08T02:34:43;99066.06;;;0.44;100.00
28008;BME280;15333;50.010;20.020;2023-04-08T02:37:45;99060.56;;;0.52;100.00
28008;BME280;15333;50.010;20.020;2023-04-08T02:40:51;99063.38;;;0.47;100.00
28008;BME280;15333;50.010;20.020;2023-04-08T02:43:52;99062.50;;;0.47;100.00
28008;BME280;15333;50.010;20.020;2023-04-08T02:46:54;99066.31;;;0.36;100.00
28008;BME280;15333;50.010;20.020;2023-04-08T02:49:55;99070.53;;;0.42;100.00
28008;BME280;15333;50.010;20.020;2023-04-08T02:52:56;99069.75;;;0.38;100.00
28008;BME280;15333;50.010;20.020;2023-04-08T02:55:57;99076.69;;;0.43;100.00
28008;BME280;15333;50.010;20.020;2023-04-08T02:58:58;99068.16;;;0.34;100.00
28008;BME280;15333;50.010;20.020;2023-04-08T03:01:59;99085.47;;;0.42;100.00
28008;BME280;15333;50.010;20.020;2023-04-08T03:05:00;99079.34;;;0.41;100.00
28008;BME280;15333;50.010;20.020;2023-04-08T03:08:01;99081.84;;;0.46;100.00
28008;BME280;15333;50.010;20.020;2023-04-08T03:11:02;99078.28;;;0.47;100.00
28008;BME280;15333;50.010;20.020;2023-04-08T03:14:03;99080.69;;;0.54;100.00
28008;BME280;15333;50.010;20.020;2023-04-08T03:17:04;99084.81;;;0.63;100.00
28008;BME280;15333;50.010;20.020;2023-04-08T03:20:06;99075.28;;;0.59;100.00
28008;BME280;15333;50.010;20.020;2023-04-08T03:23:07;99087.66;;;0.57;100.00
28008;BME280;15333;50.010;20.020;2023-04-08T03:26:08;99085.53;;;0.68;100.00
28008;BME280;15333;50.010;20.020;2023-04-08T03:29:09;99088.44;;;0.59;100.00
28008;BME280;15333;50.010;20.020;2023-04-08T03:32:10;99094.09;;;0.47;100.00
28008;BME280;15333;50.010;20.020;2023-04-08T03:35:11;99102.81;;;0.49;100.00
28008;BME280;15333;50.010;20.020;2023-04-08T03:38:12;99095.63;;;0.54;100.00
28008;BME280;15333;50.010;20.020;2023-04-08T03:41:12;99104.16;;;0.62;100.00
28008;BME280;15333;50.010;20.020;2023-04-08T03:44:13;99100.69;;;0.60;100.00
28008;BME280;15333;50.010;20.020;2023-04-08T03:47:14;99099.94;;;0.56;100.00
28008;BME280;15333;50.010;20.020;2023-04-08T03:50:15;99103.50;;;0.55;100.00
28008;BME280;15333;50.010;20.020;2023-04-08T03:53:16;99111.56;;;0.49;100.00
28008;BME280;15333;50.010;20.020;2023-04-08T03:56:17;99108.84;;;0.52;100.00
28008;BME280;15333;50.010;20.020;2023-04-08T03:59:18;99111.63;;;0.48;100.00
28008;BME280;15333;50.010;20.020;2023-04-08T04:02:19;99117.63;;;0.51;100.00
28008;BME280;15333;50.010;20.020;2023-04-08T04:05:20;99124.75;;;0.49;100.00
28008;BME280;15333;50.010;20.020;2023-04-08T04:08:21;99122.34;;;0.42;100.00
28008;BME280;15333;50.010;20.020;2023-04-08T04:11:22;99125.88;;;0.41;100.00
28008;BME280;15333;50.010;20.020;2023-04-08T04:14:23;99123.88;;;0.49;100.00
28008;BME280;15333;50.010;20.020;2023-04-08T04:17:24;99134.13;;;0.58;100.00
28008;BME280;15333;50.010;20.020;2023-04-08T04:20:25;99141.09;;;0.59;100.00
28008;BME280;15333;50.010;20.020;2023-04-08T04:23:28;99132.91;;;0.69;100.00
28008;BME280;15333;50.010;20.020;2023-04-08T04:26:29;99140.66;;;0.74;100.00
28008;BME280;15333;50.010;20.020;2023-04-08T04:29:30;99142.31;;;0.78;100.00
28008;BME280;15333;50.010;20.020;2023-04-08T04:32:31;99157.16;;;0.79;100.00
28008;BME280;15333;50.010;20.020;2023-04-08T04:35:33;99151.00;;;0.80;100.00
28008;BME280;15333;50.010;20.020;2023-04-08T04:38:34;99147.56;;;0.78;100.00
28008;BME280;15333;50.010;20.020;2023-04-08T04:41:34;99157.31;;;0.74;100.00
28008;BME280;15333;50.010;20.020;2023-04-08T04:44:40;99164.31;;;1.03;100.00
28008;BME280;15333;50.010;20.020;2023-04-08T04:47:40;99162.34;;;1.10;100.00
28008;BME280;15333;50.010;20.020;2023-04-08T04:50:41;99168.47;;;1.12;100.00
28008;BME280;15333;50.010;20.020;2023-04-08T04:53:42;99170.03;;;1.17;100.00
28008;BME280;15333;50.010;20.020;2023-04-08T04:56:43;99169.13;;;1.18;100.00
28008;BME280;15333;50.010;20.020;2023-04-08T04:59:44;99166.69;;;1.12;100.00
28008;BME280;15333;50.010;20.020;2023-04-08T05:02:45;99172.47;;;1.24;100.00
28008;BME280;15333;50.010;20.020;2023-04-08T05:05:50;99178.69;;;1.21;100.00
28008;BME280;15333;50.010;20.020;2023-04-08T05:08:51;99172.19;;;1.33;100.00
28008;BME280;15333;50.010;20.020;2023-04-08T05:11:52;99176.97;;;1.48;100.00
28008;BME280;15333;50.010;20.020;2023-04-08T05:14:53;99181.44;;;1.44;100.00
28008;BME280;15333;50.010;20.020;2023-04-08T05:17:54;99182.69;;;1.61;100.00
28008;BME280;15333;50.010;20.020;2023-04-08T05:20:55;99188.53;;;1.70;100.00
28008;BME280;15333;50.010;20.020;2023-04-08T05:23:55;99195.84;;;1.62;100.00
28008;BME280;15333;50.010;20.020;2023-04-08T05:26:56;99186.69;;;1.72;100.00
28008;BME280;15333;50.010;20.020;2023-04-08T05:29:57;99189.28;;;1.74;100.00
28008;BME280;15333;50.010;20.020;2023-04-08T05:32:58;99200.19;;;1.89;100.00
28008;BME280;15333;50.010;20.020;2023-04-08T05:35:59;99190.81;;;2.06;100.00
28008;BME280;15333;50.010;20.020;2023-04-08T05:39:00;99188.75;;;2.14;100.00
28008;BME280;15333;50.010;20.020;2023-04-08T05:42:01;99198.44;;;2.38;100.00
28008;BME280;15333;50.010;20.020;2023-04-08T05:45:03;99196.53;;;2.66;100.00
28008;BME280;15333;50.010;20.020;2023-04-08T05:48:03;99197.09;;;2.74;100.00
28008;BME280;15333;50.010;20.020;2023-04-08T05:51:04;99197.09;;;2.98;100.00
28008;BME280;15333;50.010;20.020;2023-04-08T05:54:05;99200.53;;;3.00;100.00
28008;BME280;15333;50.010;20.020;2023-04-08T05:57:06;99210.25;;;2.76;100.00
28008;BME280;15333;50.010;20.020;2023-04-08T06:00:09;99217.03;;;2.60;100.00
28008;BME280;15333;50.010;20.020;2023-04-08T06:03:11;99227.00;;;2.77;100.00
28008;BME280;15333;50.010;20.020;2023-04-08T06:06:12;99234.66;;;2.59;100.00
28008;BME280;15333;50.010;20.020;2023-04-08T06:09:13;99245.31;;;2.56;100.00
28008;BME280;15333;50.010;20.020;2023-04-08T06:12:13;99240.00;;;2.33;100.00
28008;BME280;15333;50.010;20.020;2023-04-08T06:15:14;99241.91;;;2.54;100.00
28008;BME280;15333;50.010;20.020;2023-04-08T06:18:16;99250.41;;;2.62;100.00
28008;BME280;15333;50.010;20.020;2023-04-08T06:21:17;99252.78;;;2.45;100.00
28008;BME280;15333;50.010;20.020;2023-04-08T06:24:18;99257.03;;;2.49;100.00
28008;BME280;15333;50.010;20.020;2023-04-08T06:27:19;99252.94;;;2.89;100.00
28008;BME280;15333;50.010;20.020;2023-04-08T06:30:20;99251.38;;;3.06;100.00
28008;BME280;15333;50.010;20.020;2023-04-08T06:33:21;99260.75;;;2.92;100.00
28008;BME280;15333;50.010;20.020;2023-04-08T06:36:22;99264.56;;;3.08;100.00
28008;BME280;15333;50.010;20.020;2023-04-08T06:39:23;99259.41;;;3.05;100.00
28008;BME280;15333;50.010;20.020;2023-04-08T06:42:24;99261.31;;;3.00;100.00
28008;BME280;15333;50.010;20.020;2023-04-08T06:45:40;99264.69;;;3.05;100.00
28008;BME280;15333;50.010;20.020;2023-04-08T06:48:42;99264.84;;;3.24;100.00
28008;BME280;15333;50.010;20.020;2023-04-08T06:51:43;99257.63;;;3.27;100.00
28008;BME280;15333;50.010;20.020;2023-04-08T06:54:44;99270.59;;;3.57;100.00
28008;BME280;15333;50.010;20.020;2023-04-08T06:57:45;99265.16;;;3.38;100.00
28008;BME280;15333;50.010;20.020;2023-04-08T07:00:46;99265.13;;;3.39;100.00
28008;BME280;15333;50.010;20.020;2023-04-08T07:03:47;99263.09;;;3.68;100.00
28008;BME280;15333;50.010;20.020;2023-04-08T07:06:48;99266.22;;;3.34;100.00
28008;BME280;15333;50.010;20.020;2023-04-08T07:09:50;99273.22;;;3.57;100.00
28008;BME280;15333;50.010;20.020;2023-04-08T07:12:51;99272.03;;;4.07;100.00
28008;BME280;15333;50.010;20.020;2023-04-08T07:15:52;99265.25;;;4.42;100.00
28008;BME280;15333;50.010;20.020;2023-04-08T07:18:53;99257.63;;;4.75;99.42
28008;BME280;15333;50.010;20.020;2023-04-08T07:21:54;99262.69;;;5.00;96.61
28008;BME280;15333;50.010;20.020;2023-04-08T07:24:54;99267.28;;;5.15;96.43
28008;BME280;15333;50.010;20.020;2023-04-08T07:27:55;99268.59;;;5.44;94.42
28008;BME280;15333;50.010;20.020;2023-04-08T07:31:10;99287.47;;;4.99;94.48
28008;BME280;15333;50.010;20.020;2023-04-08T07:34:11;99293.81;;;4.56;95.75
28008;BME280;15333;50.010;20.020;2023-04-08T07:37:12;99292.88;;;4.37;98.00
28008;BME280;15333;50.010;20.020;2023-04-08T07:40:13;99287.31;;;4.63;97.06
28008;BME280;15333;50.010;20.020;2023-04-08T07:43:14;99297.72;;;4.67;96.80
28008;BME280;15333;50.010;20.020;2023-04-08T07:46:15;99290.22;;;4.57;95.50
28008;BME280;15333;50.010;20.020;2023-04-08T07:49:16;99293.53;;;4.62;96.89
28008;BME280;15333;50.010;20.020;2023-04-08T07:52:17;99299.19;;;4.54;96.74
28008;BME280;15333;50.010;20.020;2023-04-08T07:55:18;99303.22;;;4.43;97.07
28008;BME280;15333;50.010;20.020;2023-04-08T07:58:19;99297.00;;;4.64;98.37
28008;BME280;15333;50.010;20.020;2023-04-08T08:01:21;99303.34;;;4.80;96.27
28008;BME280;15333;50.010;20.020;2023-04-08T08:04:23;99300.56;;;5.03;94.69
28008;BME280;15333;50.010;20.020;2023-04-08T08:07:25;99297.28;;;5.36;95.09
28008;BME280;15333;50.010;20.020;2023-04-08T08:10:26;99306.31;;;5.32;92.60
28008;BME280;15333;50.010;20.020;2023-04-08T08:13:27;99301.56;;;5.76;91.47
28008;BME280;15333;50.010;20.020;2023-04-08T08:16:28;99297.56;;;5.67;90.02
28008;BME280;15333;50.010;20.020;2023-04-08T08:19:29;99295.13;;;5.44;91.31
28008;BME280;15333;50.010;20.020;2023-04-08T08:22:30;99291.03;;;5.74;91.59
28008;BME280;15333;50.010;20.020;2023-04-08T08:25:31;99301.69;;;6.10;91.37
28008;BME280;15333;50.010;20.020;2023-04-08T08:28:32;99301.88;;;5.88;90.67
28008;BME280;15333;50.010;20.020;2023-04-08T08:31:33;99308.75;;;5.55;92.12
28008;BME280;15333;50.010;20.020;2023-04-08T08:34:35;99308.06;;;5.89;92.69
28008;BME280;15333;50.010;20.020;2023-04-08T08:37:35;99306.66;;;5.80;91.40
28008;BME280;15333;50.010;20.020;2023-04-08T08:40:36;99314.91;;;5.56;91.46
28008;BME280;15333;50.010;20.020;2023-04-08T08:43:37;99309.25;;;5.44;92.44
28008;BME280;15333;50.010;20.020;2023-04-08T08:46:46;99315.34;;;5.65;92.79
28008;BME280;15333;50.010;20.020;2023-04-08T08:49:47;99303.44;;;5.93;92.00
28008;BME280;15333;50.010;20.020;2023-04-08T08:52:49;99310.19;;;6.00;90.79
28008;BME280;15333;50.010;20.020;2023-04-08T08:55:50;99312.03;;;5.98;90.37
28008;BME280;15333;50.010;20.020;2023-04-08T08:58:52;99307.59;;;6.51;89.71
28008;BME280;15333;50.010;20.020;2023-04-08T09:01:52;99314.00;;;6.64;87.60
28008;BME280;15333;50.010;20.020;2023-04-08T09:04:58;99303.66;;;6.93;86.71
28008;BME280;15333;50.010;20.020;2023-04-08T09:07:59;99310.66;;;7.11;85.96
28008;BME280;15333;50.010;20.020;2023-04-08T09:11:14;99320.22;;;7.15;84.58
28008;BME280;15333;50.010;20.020;2023-04-08T09:14:20;99319.72;;;7.24;85.05
28008;BME280;15333;50.010;20.020;2023-04-08T09:17:34;99327.44;;;7.29;85.10
28008;BME280;15333;50.010;20.020;2023-04-08T09:20:35;99324.66;;;7.15;86.02
28008;BME280;15333;50.010;20.020;2023-04-08T09:23:48;99330.72;;;6.84;85.68
28008;BME280;15333;50.010;20.020;2023-04-08T09:26:49;99323.59;;;6.84;86.33
28008;BME280;15333;50.010;20.020;2023-04-08T09:29:50;99323.84;;;6.80;86.24
28008;BME280;15333;50.010;20.020;2023-04-08T09:32:55;99331.13;;;6.93;86.73
28008;BME280;15333;50.010;20.020;2023-04-08T09:35:57;99333.53;;;6.98;85.84
28008;BME280;15333;50.010;20.020;2023-04-08T09:38:57;99335.31;;;7.15;85.97
28008;BME280;15333;50.010;20.020;2023-04-08T09:41:59;99341.66;;;7.12;85.23
28008;BME280;15333;50.010;20.020;2023-04-08T09:45:03;99337.97;;;7.47;84.37
28008;BME280;15333;50.010;20.020;2023-04-08T09:48:31;99344.41;;;7.43;80.70
28008;BME280;15333;50.010;20.020;2023-04-08T09:51:58;99342.91;;;7.05;82.24
28008;BME280;15333;50.010;20.020;2023-04-08T09:55:04;99351.25;;;6.82;85.98
28008;BME280;15333;50.010;20.020;2023-04-08T09:58:14;99342.00;;;6.37;88.84
28008;BME280;15333;50.010;20.020;2023-04-08T10:01:23;99344.03;;;6.32;90.48
28008;BME280;15333;50.010;20.020;2023-04-08T10:04:27;99352.56;;;6.03;90.79
28008;BME280;15333;50.010;20.020;2023-04-08T10:07:28;99358.06;;;5.79;92.69
28008;BME280;15333;50.010;20.020;2023-04-08T10:10:30;99363.19;;;6.03;93.11
28008;BME280;15333;50.010;20.020;2023-04-08T10:13:32;99359.16;;;5.75;93.43
28008;BME280;15333;50.010;20.020;2023-04-08T10:16:33;99363.44;;;5.78;92.62
28008;BME280;15333;50.010;20.020;2023-04-08T10:19:38;99360.44;;;5.67;94.07
28008;BME280;15333;50.010;20.020;2023-04-08T10:22:45;99363.22;;;5.45;96.70
28008;BME280;15333;50.010;20.020;2023-04-08T10:25:48;99357.66;;;5.31;97.34
28008;BME280;15333;50.010;20.020;2023-04-08T10:28:48;99355.38;;;5.42;97.37
28008;BME280;15333;50.010;20.020;2023-04-08T10:31:50;99351.97;;;5.59;96.53
28008;BME280;15333;50.010;20.020;2023-04-08T10:34:52;99360.28;;;5.51;95.90
28008;BME280;15333;50.010;20.020;2023-04-08T10:37:53;99367.47;;;5.29;97.09
28008;BME280;15333;50.010;20.020;2023-04-08T10:40:55;99371.56;;;4.97;99.38
28008;BME280;15333;50.010;20.020;2023-04-08T10:43:56;99378.47;;;5.01;100.00
28008;BME280;15333;50.010;20.020;2023-04-08T10:46:57;99376.78;;;4.98;100.00
28008;BME280;15333;50.010;20.020;2023-04-08T10:49:58;99367.53;;;4.88;100.00
28008;BME280;15333;50.010;20.020;2023-04-08T10:52:59;99372.16;;;4.83;100.00
28008;BME280;15333;50.010;20.020;2023-04-08T10:56:05;99371.47;;;4.58;100.00
28008;BME280;15333;50.010;20.020;2023-04-08T10:59:06;99370.50;;;4.60;100.00
28008;BME280;15333;50.010;20.020;2023-04-08T11:02:12;99371.69;;;4.73;100.00
28008;BME280;15333;50.010;20.020;2023-04-08T11:05:14;99367.00;;;4.80;100.00
28008;BME280;15333;50.010;20.020;2023-04-08T11:08:15;99372.03;;;4.86;100.00
28008;BME280;15333;50.010;20.020;2023-04-08T11:11:19;99371.44;;;4.80;100.00
28008;BME280;15333;50.010;20.020;2023-04-08T11:14:22;99370.09;;;4.69;100.00
28008;BME280;15333;50.010;20.020;2023-04-08T11:17:23;99362.81;;;4.75;100.00
28008;BME280;15333;50.010;20.020;2023-04-08T11:20:24;99373.16;;;4.60;100.00
28008;BME280;15333;50.010;20.020;2023-04-08T11:23:25;99369.91;;;4.54;100.00
28008;BME280;15333;50.010;20.020;2023-04-08T11:26:27;99366.19;;;4.58;100.00
28008;BME280;15333;50.010;20.020;2023-04-08T11:29:28;99373.84;;;4.44;100.00
28008;BME280;15333;50.010;20.020;2023-04-08T11:32:30;99375.38;;;4.27;100.00
28008;BME280;15333;50.010;20.020;2023-04-08T11:35:31;99372.19;;;4.19;100.00
28008;BME280;15333;50.010;20.020;2023-04-08T11:38:38;99374.97;;;4.16;100.00
28008;BME280;15333;50.010;20.020;2023-04-08T11:41:39;99373.84;;;4.22;100.00
28008;BME280;15333;50.010;20.020;2023-04-08T11:44:40;99376.44;;;4.23;100.00
28008;BME280;15333;50.010;20.020;2023-04-08T11:47:42;99380.44;;;4.33;100.00
28008;BME280;15333;50.010;20.020;2023-04-08T11:50:44;99368.91;;;4.34;100.00
28008;BME280;15333;50.010;20.020;2023-04-08T11:53:45;99365.72;;;4.26;100.00
28008;BME280;15333;50.010;20.020;2023-04-08T11:56:48;99367.06;;;4.37;100.00
28008;BME280;15333;50.010;20.020;2023-04-08T11:59:50;99367.56;;;4.46;100.00
28008;BME280;15333;50.010;20.020;2023-04-08T12:02:51;99361.00;;;4.55;100.00
28008;BME280;15333;50.010;20.020;2023-04-08T12:05:52;99358.38;;;4.75;100.00
28008;BME280;15333;50.010;20.020;2023-04-08T12:08:55;99367.84;;;4.81;100.00
28008;BME280;15333;50.010;20.020;2023-04-08T12:11:55;99357.56;;;4.73;100.00
28008;BME280;15333;50.010;20.020;2023-04-08T12:14:57;99354.38;;;4.85;100.00
28008;BME280;15333;50.010;20.020;2023-04-08T12:17:58;99354.25;;;5.08;100.00
28008;BME280;15333;50.010;20.020;2023-04-08T12:20:59;99352.78;;;5.22;100.00
28008;BME280;15333;50.010;20.020;2023-04-08T12:24:00;99357.09;;;5.24;100.00
28008;BME280;15333;50.010;20.020;2023-04-08T12:27:01;99356.94;;;5.27;100.00
28008;BME280;15333;50.010;20.020;2023-04-08T12:30:04;99355.16;;;5.28;100.00
28008;BME280;15333;50.010;20.020;2023-04-08T12:33:05;99359.41;;;5.32;100.00
28008;BME280;15333;50.010;20.020;2023-04-08T12:36:06;99361.59;;;5.22;100.00
28008;BME280;15333;50.010;20.020;2023-04-08T12:39:07;99356.63;;;5.15;100.00
28008;BME280;15333;50.010;20.020;2023-04-08T12:42:08;99359.69;;;5.26;100.00
28008;BME280;15333;50.010;20.020;2023-04-08T12:45:09;99356.31;;;5.41;100.00
28008;BME280;15333;50.010;20.020;2023-04-08T12:48:10;99352.03;;;5.38;100.00
28008;BME280;15333;50.010;20.020;2023-04-08T12:51:11;99354.69;;;5.57;100.00
28008;BME280;15333;50.010;20.020;2023-04-08T12:54:12;99351.44;;;5.69;100.00
28008;BME280;15333;50.010;20.020;2023-04-08T12:57:13;99348.72;;;5.71;100.00
28008;BME280;15333;50.010;20.020;2023-04-08T13:00:14;99349.25;;;5.60;100.00
28008;BME280;15333;50.010;20.020;2023-04-08T13:03:15;99353.16;;;5.70;100.00
28008;BME280;15333;50.010;20.020;2023-04-08T13:06:17;99348.06;;;5.84;100.00
28008;BME280;15333;50.010;20.020;2023-04-08T13:09:18;99344.22;;;5.92;100.00
28008;BME280;15333;50.010;20.020;2023-04-08T13:12:19;99347.06;;;5.87;100.00
28008;BME280;15333;50.010;20.020;2023-04-08T13:15:20;99346.81;;;5.74;100.00
28008;BME280;15333;50.010;20.020;2023-04-08T13:18:21;99336.75;;;5.81;100.00
28008;BME280;15333;50.010;20.020;2023-04-08T13:21:22;99344.22;;;5.92;100.00
28008;BME280;15333;50.010;20.020;2023-04-08T13:24:23;99345.88;;;5.75;100.00
28008;BME280;15333;50.010;20.020;2023-04-08T13:27:24;99348.78;;;5.69;100.00
28008;BME280;15333;50.010;20.020;2023-04-08T13:30:25;99347.97;;;5.87;100.00
28008;BME280;15333;50.010;20.020;2023-04-08T13:33:26;99348.25;;;6.00;100.00
28008;BME280;15333;50.010;20.020;2023-04-08T13:36:27;99337.44;;;6.22;100.00
28008;BME280;15333;50.010;20.020;2023-04-08T13:39:31;99334.31;;;6.48;99.96
28008;BME280;15333;50.010;20.020;2023-04-08T13:42:31;99329.19;;;6.80;98.36
28008;BME280;15333;50.010;20.020;2023-04-08T13:45:32;99326.41;;;7.16;95.40
28008;BME280;15333;50.010;20.020;2023-04-08T13:48:33;99330.03;;;7.30;93.25
28008;BME280;15333;50.010;20.020;2023-04-08T13:51:34;99330.19;;;7.27;93.71
28008;BME280;15333;50.010;20.020;2023-04-08T13:54:35;99321.66;;;7.54;91.55
28008;BME280;15333;50.010;20.020;2023-04-08T13:57:37;99329.28;;;7.11;93.14
28008;BME280;15333;50.010;20.020;2023-04-08T14:00:37;99331.94;;;7.11;94.66
28008;BME280;15333;50.010;20.020;2023-04-08T14:03:38;99334.78;;;7.08;94.24
28008;BME280;15333;50.010;20.020;2023-04-08T14:06:39;99332.84;;;6.94;94.69
28008;BME280;15333;50.010;20.020;2023-04-08T14:09:40;99335.91;;;6.87;95.25
28008;BME280;15333;50.010;20.020;2023-04-08T14:12:41;99336.19;;;7.15;94.66
28008;BME280;15333;50.010;20.020;2023-04-08T14:15:42;99325.22;;;7.04;95.13
28008;BME280;15333;50.010;20.020;2023-04-08T14:18:43;99323.09;;;7.11;94.47
28008;BME280;15333;50.010;20.020;2023-04-08T14:21:44;99325.06;;;7.07;95.03
28008;BME280;15333;50.010;20.020;2023-04-08T14:24:45;99326.44;;;7.31;93.89
28008;BME280;15333;50.010;20.020;2023-04-08T14:27:46;99316.44;;;7.19;94.38
28008;BME280;15333;50.010;20.020;2023-04-08T14:30:47;99316.94;;;7.10;94.00
28008;BME280;15333;50.010;20.020;2023-04-08T14:33:48;99323.97;;;7.44;94.08
28008;BME280;15333;50.010;20.020;2023-04-08T14:36:49;99337.09;;;7.31;93.17
28008;BME280;15333;50.010;20.020;2023-04-08T14:39:50;99331.66;;;7.00;94.07
28008;BME280;15333;50.010;20.020;2023-04-08T14:42:50;99345.28;;;6.59;97.63
28008;BME280;15333;50.010;20.020;2023-04-08T14:45:52;99341.53;;;6.81;97.13
28008;BME280;15333;50.010;20.020;2023-04-08T14:48:52;99339.03;;;6.60;97.08
28008;BME280;15333;50.010;20.020;2023-04-08T14:51:53;99340.19;;;6.55;98.51
28008;BME280;15333;50.010;20.020;2023-04-08T14:54:54;99340.75;;;6.61;98.90
28008;BME280;15333;50.010;20.020;2023-04-08T14:57:55;99343.56;;;6.76;98.30
28008;BME280;15333;50.010;20.020;2023-04-08T15:00:56;99344.75;;;6.70;97.96
28008;BME280;15333;50.010;20.020;2023-04-08T15:03:57;99340.50;;;7.00;95.57
28008;BME280;15333;50.010;20.020;2023-04-08T15:06:58;99335.78;;;7.05;94.25
28008;BME280;15333;50.010;20.020;2023-04-08T15:09:59;99334.94;;;7.05;94.81
28008;BME280;15333;50.010;20.020;2023-04-08T15:13:00;99334.59;;;7.11;94.53
28008;BME280;15333;50.010;20.020;2023-04-08T15:16:01;99336.19;;;7.15;94.04
28008;BME280;15333;50.010;20.020;2023-04-08T15:19:02;99334.44;;;7.14;94.85
28008;BME280;15333;50.010;20.020;2023-04-08T15:22:04;99328.06;;;7.01;95.63
28008;BME280;15333;50.010;20.020;2023-04-08T15:25:05;99334.94;;;7.05;94.93
28008;BME280;15333;50.010;20.020;2023-04-08T15:28:07;99333.53;;;6.98;95.62
28008;BME280;15333;50.010;20.020;2023-04-08T15:31:08;99334.44;;;7.14;94.75
28008;BME280;15333;50.010;20.020;2023-04-08T15:34:09;99338.53;;;7.04;95.03
28008;BME280;15333;50.010;20.020;2023-04-08T15:37:09;99332.44;;;7.02;95.66
28008;BME280;15333;50.010;20.020;2023-04-08T15:40:11;99327.59;;;6.93;96.17
28008;BME280;15333;50.010;20.020;2023-04-08T15:43:12;99335.56;;;6.93;96.92
28008;BME280;15333;50.010;20.020;2023-04-08T15:46:17;99328.78;;;6.87;96.54
28008;BME280;15333;50.010;20.020;2023-04-08T15:49:18;99327.75;;;6.90;97.42
28008;BME280;15333;50.010;20.020;2023-04-08T15:52:19;99334.31;;;7.17;95.69
28008;BME280;15333;50.010;20.020;2023-04-08T15:55:20;99339.31;;;7.06;95.64
28008;BME280;15333;50.010;20.020;2023-04-08T15:58:21;99332.28;;;7.05;96.51